sensor_id;sensor_type;location;lat;lon;timestamp;P1;durP1;ratioP1;P2;durP2;ratioP2
28629;SDS011;15817;42.130;24.762;2022-11-18T00:00:53;35.35;;;28.30;;
28629;SDS011;15817;42.130;24.762;2022-11-18T00:03:19;36.95;;;28.60;;
28629;SDS011;15817;42.130;24.762;2022-11-18T00:05:55;34.67;;;28.23;;
28629;SDS011;15817;42.130;24.762;2022-11-18T00:08:22;32.05;;;26.20;;
28629;SDS011;15817;42.130;24.762;2022-11-18T00:10:49;33.55;;;25.95;;
28629;SDS011;15817;42.130;24.762;2022-11-18T00:13:18;30.02;;;24.83;;
28629;SDS011;15817;42.130;24.762;2022-11-18T00:16:03;34.53;;;25.85;;
28629;SDS011;15817;42.130;24.762;2022-11-18T00:18:33;36.10;;;26.85;;
28629;SDS011;15817;42.130;24.762;2022-11-18T00:21:03;32.55;;;27.25;;
28629;SDS011;15817;42.130;24.762;2022-11-18T00:23:33;36.28;;;25.23;;
28629;SDS011;15817;42.130;24.762;2022-11-18T00:26:03;32.15;;;24.92;;
28629;SDS011;15817;42.130;24.762;2022-11-18T00:28:33;31.63;;;24.40;;
28629;SDS011;15817;42.130;24.762;2022-11-18T00:31:00;29.52;;;23.80;;
28629;SDS011;15817;42.130;24.762;2022-11-18T00:33:30;28.55;;;23.08;;
28629;SDS011;15817;42.130;24.762;2022-11-18T00:35:56;34.13;;;23.85;;
28629;SDS011;15817;42.130;24.762;2022-11-18T00:38:23;25.75;;;21.55;;
28629;SDS011;15817;42.130;24.762;2022-11-18T00:41:03;25.80;;;21.48;;
28629;SDS011;15817;42.130;24.762;2022-11-18T00:43:34;29.10;;;21.40;;
28629;SDS011;15817;42.130;24.762;2022-11-18T00:46:01;22.13;;;19.50;;
28629;SDS011;15817;42.130;24.762;2022-11-18T00:48:32;25.42;;;20.67;;
28629;SDS011;15817;42.130;24.762;2022-11-18T00:51:04;23.88;;;20.50;;
28629;SDS011;15817;42.130;24.762;2022-11-18T00:53:32;24.85;;;20.83;;
28629;SDS011;15817;42.130;24.762;2022-11-18T00:55:58;26.50;;;20.45;;
28629;SDS011;15817;42.130;24.762;2022-11-18T00:58:27;24.30;;;19.75;;
28629;SDS011;15817;42.130;24.762;2022-11-18T01:00:54;23.40;;;20.55;;
28629;SDS011;15817;42.130;24.762;2022-11-18T01:03:20;26.15;;;21.15;;
28629;SDS011;15817;42.130;24.762;2022-11-18T01:05:46;21.52;;;19.33;;
28629;SDS011;15817;42.130;24.762;2022-11-18T01:08:12;36.88;;;21.88;;
28629;SDS011;15817;42.130;24.762;2022-11-18T01:10:39;23.38;;;20.63;;
28629;SDS011;15817;42.130;24.762;2022-11-18T01:13:06;29.70;;;20.50;;
28629;SDS011;15817;42.130;24.762;2022-11-18T01:15:46;22.08;;;19.58;;
28629;SDS011;15817;42.130;24.762;2022-11-18T01:18:15;26.02;;;19.25;;
28629;SDS011;15817;42.130;24.762;2022-11-18T01:20:42;22.42;;;18.63;;
28629;SDS011;15817;42.130;24.762;2022-11-18T01:23:09;27.95;;;19.60;;
28629;SDS011;15817;42.130;24.762;2022-11-18T01:25:35;29.73;;;20.55;;
28629;SDS011;15817;42.130;24.762;2022-11-18T01:28:03;27.73;;;20.55;;
28629;SDS011;15817;42.130;24.762;2022-11-18T01:30:31;33.75;;;19.63;;
28629;SDS011;15817;42.130;24.762;2022-11-18T01:32:58;22.63;;;19.38;;
28629;SDS011;15817;42.130;24.762;2022-11-18T01:35:23;25.65;;;18.73;;
28629;SDS011;15817;42.130;24.762;2022-11-18T01:37:49;24.60;;;18.77;;
28629;SDS011;15817;42.130;24.762;2022-11-18T01:40:15;34.28;;;19.83;;
28629;SDS011;15817;42.130;24.762;2022-11-18T01:42:41;28.67;;;20.00;;
28629;SDS011;15817;42.130;24.762;2022-11-18T01:45:30;40.80;;;20.17;;
28629;SDS011;15817;42.130;24.762;2022-11-18T01:50:24;25.63;;;20.33;;
28629;SDS011;15817;42.130;24.762;2022-11-18T01:52:51;37.15;;;20.95;;
28629;SDS011;15817;42.130;24.762;2022-11-18T01:55:23;50.40;;;20.35;;
28629;SDS011;15817;42.130;24.762;2022-11-18T01:57:52;80.07;;;20.88;;
28629;SDS011;15817;42.130;24.762;2022-11-18T02:00:27;64.72;;;20.42;;
28629;SDS011;15817;42.130;24.762;2022-11-18T02:02:53;28.50;;;18.70;;
28629;SDS011;15817;42.130;24.762;2022-11-18T02:05:20;43.20;;;19.20;;
28629;SDS011;15817;42.130;24.762;2022-11-18T02:07:46;51.38;;;19.77;;
28629;SDS011;15817;42.130;24.762;2022-11-18T02:10:16;29.25;;;18.15;;
28629;SDS011;15817;42.130;24.762;2022-11-18T02:12:45;103.03;;;21.50;;
28629;SDS011;15817;42.130;24.762;2022-11-18T02:15:11;24.00;;;19.67;;
28629;SDS011;15817;42.130;24.762;2022-11-18T02:25:51;38.15;;;18.85;;
28629;SDS011;15817;42.130;24.762;2022-11-18T02:33:47;262.60;;;27.42;;
28629;SDS011;15817;42.130;24.762;2022-11-18T02:39:43;70.97;;;19.88;;
28629;SDS011;15817;42.130;24.762;2022-11-18T02:42:22;100.63;;;20.83;;
28629;SDS011;15817;42.130;24.762;2022-11-18T02:44:52;31.65;;;19.02;;
28629;SDS011;15817;42.130;24.762;2022-11-18T02:47:23;41.50;;;19.65;;
28629;SDS011;15817;42.130;24.762;2022-11-18T02:49:56;124.50;;;22.25;;
28629;SDS011;15817;42.130;24.762;2022-11-18T02:52:26;53.83;;;21.05;;
28629;SDS011;15817;42.130;24.762;2022-11-18T02:54:52;26.58;;;19.13;;
28629;SDS011;15817;42.130;24.762;2022-11-18T02:57:20;49.85;;;19.80;;
28629;SDS011;15817;42.130;24.762;2022-11-18T02:59:49;33.28;;;20.20;;
28629;SDS011;15817;42.130;24.762;2022-11-18T03:02:16;51.15;;;20.15;;
28629;SDS011;15817;42.130;24.762;2022-11-18T03:04:46;23.45;;;19.27;;
28629;SDS011;15817;42.130;24.762;2022-11-18T03:07:21;38.17;;;20.70;;
28629;SDS011;15817;42.130;24.762;2022-11-18T03:09:54;112.07;;;21.75;;
28629;SDS011;15817;42.130;24.762;2022-11-18T03:12:29;23.30;;;19.25;;
28629;SDS011;15817;42.130;24.762;2022-11-18T03:18:19;20.83;;;18.45;;
28629;SDS011;15817;42.130;24.762;2022-11-18T03:20:58;24.20;;;18.73;;
28629;SDS011;15817;42.130;24.762;2022-11-18T03:23:39;26.88;;;18.48;;
28629;SDS011;15817;42.130;24.762;2022-11-18T03:26:14;28.33;;;18.55;;
28629;SDS011;15817;42.130;24.762;2022-11-18T03:31:25;26.35;;;19.05;;
28629;SDS011;15817;42.130;24.762;2022-11-18T03:34:08;34.30;;;18.30;;
28629;SDS011;15817;42.130;24.762;2022-11-18T03:36:44;23.92;;;18.35;;
28629;SDS011;15817;42.130;24.762;2022-11-18T03:39:14;24.52;;;18.15;;
28629;SDS011;15817;42.130;24.762;2022-11-18T03:41:43;35.38;;;18.05;;
28629;SDS011;15817;42.130;24.762;2022-11-18T03:44:16;22.85;;;18.50;;
28629;SDS011;15817;42.130;24.762;2022-11-18T03:46:46;26.23;;;19.85;;
28629;SDS011;15817;42.130;24.762;2022-11-18T03:49:18;27.90;;;20.05;;
28629;SDS011;15817;42.130;24.762;2022-11-18T03:51:53;37.10;;;21.70;;
28629;SDS011;15817;42.130;24.762;2022-11-18T03:54:22;37.03;;;20.92;;
28629;SDS011;15817;42.130;24.762;2022-11-18T03:56:56;54.17;;;22.90;;
28629;SDS011;15817;42.130;24.762;2022-11-18T03:59:30;40.42;;;22.85;;
28629;SDS011;15817;42.130;24.762;2022-11-18T04:04:39;35.58;;;23.50;;
28629;SDS011;15817;42.130;24.762;2022-11-18T04:07:11;35.60;;;22.77;;
28629;SDS011;15817;42.130;24.762;2022-11-18T04:09:54;55.00;;;24.45;;
28629;SDS011;15817;42.130;24.762;2022-11-18T04:12:22;39.70;;;24.48;;
28629;SDS011;15817;42.130;24.762;2022-11-18T04:14:52;48.25;;;25.08;;
28629;SDS011;15817;42.130;24.762;2022-11-18T04:17:20;59.15;;;23.92;;
28629;SDS011;15817;42.130;24.762;2022-11-18T04:19:48;88.22;;;26.67;;
28629;SDS011;15817;42.130;24.762;2022-11-18T04:22:14;85.15;;;24.33;;
28629;SDS011;15817;42.130;24.762;2022-11-18T04:24:40;68.63;;;26.25;;
28629;SDS011;15817;42.130;24.762;2022-11-18T04:27:06;78.88;;;24.00;;
28629;SDS011;15817;42.130;24.762;2022-11-18T04:29:32;108.80;;;25.02;;
28629;SDS011;15817;42.130;24.762;2022-11-18T04:31:59;45.53;;;24.65;;
28629;SDS011;15817;42.130;24.762;2022-11-18T04:34:26;103.03;;;24.92;;
28629;SDS011;15817;42.130;24.762;2022-11-18T04:36:52;53.83;;;23.13;;
28629;SDS011;15817;42.130;24.762;2022-11-18T04:39:20;70.88;;;23.92;;
28629;SDS011;15817;42.130;24.762;2022-11-18T04:41:49;54.05;;;23.52;;
28629;SDS011;15817;42.130;24.762;2022-11-18T04:44:31;39.00;;;23.40;;
28629;SDS011;15817;42.130;24.762;2022-11-18T04:46:58;51.88;;;24.05;;
28629;SDS011;15817;42.130;24.762;2022-11-18T04:49:27;44.42;;;23.45;;
28629;SDS011;15817;42.130;24.762;2022-11-18T04:51:54;49.63;;;24.55;;
28629;SDS011;15817;42.130;24.762;2022-11-18T04:54:21;69.30;;;23.88;;
28629;SDS011;15817;42.130;24.762;2022-11-18T04:56:48;35.47;;;24.10;;
28629;SDS011;15817;42.130;24.762;2022-11-18T04:59:15;67.85;;;24.25;;
28629;SDS011;15817;42.130;24.762;2022-11-18T05:01:42;71.93;;;27.25;;
28629;SDS011;15817;42.130;24.762;2022-11-18T05:04:11;85.13;;;26.23;;
28629;SDS011;15817;42.130;24.762;2022-11-18T05:06:39;77.18;;;28.90;;
28629;SDS011;15817;42.130;24.762;2022-11-18T05:09:07;53.65;;;27.02;;
28629;SDS011;15817;42.130;24.762;2022-11-18T05:11:33;90.57;;;27.45;;
28629;SDS011;15817;42.130;24.762;2022-11-18T05:14:17;55.58;;;25.50;;
28629;SDS011;15817;42.130;24.762;2022-11-18T05:16:43;84.18;;;26.77;;
28629;SDS011;15817;42.130;24.762;2022-11-18T05:19:09;59.72;;;26.45;;
28629;SDS011;15817;42.130;24.762;2022-11-18T05:21:35;41.40;;;24.83;;
28629;SDS011;15817;42.130;24.762;2022-11-18T05:24:01;35.65;;;24.55;;
28629;SDS011;15817;42.130;24.762;2022-11-18T05:26:28;33.08;;;24.48;;
28629;SDS011;15817;42.130;24.762;2022-11-18T05:28:54;89.28;;;26.75;;
28629;SDS011;15817;42.130;24.762;2022-11-18T05:31:20;108.38;;;27.77;;
28629;SDS011;15817;42.130;24.762;2022-11-18T05:33:46;84.63;;;26.38;;
28629;SDS011;15817;42.130;24.762;2022-11-18T05:36:13;68.43;;;26.33;;
28629;SDS011;15817;42.130;24.762;2022-11-18T05:38:42;55.22;;;27.67;;
28629;SDS011;15817;42.130;24.762;2022-11-18T05:41:08;43.80;;;26.48;;
28629;SDS011;15817;42.130;24.762;2022-11-18T05:43:35;88.85;;;27.40;;
28629;SDS011;15817;42.130;24.762;2022-11-18T05:46:02;36.42;;;25.88;;
28629;SDS011;15817;42.130;24.762;2022-11-18T05:48:33;38.60;;;27.00;;
28629;SDS011;15817;42.130;24.762;2022-11-18T05:51:03;37.00;;;25.35;;
28629;SDS011;15817;42.130;24.762;2022-11-18T05:53:31;37.45;;;26.15;;
28629;SDS011;15817;42.130;24.762;2022-11-18T05:59:03;41.47;;;27.73;;
28629;SDS011;15817;42.130;24.762;2022-11-18T06:03:59;55.97;;;26.48;;
28629;SDS011;15817;42.130;24.762;2022-11-18T06:06:29;34.50;;;26.20;;
28629;SDS011;15817;42.130;24.762;2022-11-18T06:09:04;71.93;;;28.73;;
28629;SDS011;15817;42.130;24.762;2022-11-18T06:11:35;39.22;;;26.73;;
28629;SDS011;15817;42.130;24.762;2022-11-18T06:14:10;63.70;;;27.88;;
28629;SDS011;15817;42.130;24.762;2022-11-18T06:16:42;65.38;;;26.35;;
28629;SDS011;15817;42.130;24.762;2022-11-18T06:19:13;55.17;;;25.00;;
28629;SDS011;15817;42.130;24.762;2022-11-18T06:21:40;81.72;;;26.25;;
28629;SDS011;15817;42.130;24.762;2022-11-18T06:24:05;46.45;;;24.92;;
28629;SDS011;15817;42.130;24.762;2022-11-18T06:26:34;108.13;;;26.60;;
28629;SDS011;15817;42.130;24.762;2022-11-18T06:29:01;70.47;;;25.67;;
28629;SDS011;15817;42.130;24.762;2022-11-18T06:31:28;48.40;;;24.83;;
28629;SDS011;15817;42.130;24.762;2022-11-18T06:33:54;78.20;;;26.40;;
28629;SDS011;15817;42.130;24.762;2022-11-18T06:36:20;138.18;;;29.33;;
28629;SDS011;15817;42.130;24.762;2022-11-18T06:38:46;123.00;;;27.95;;
28629;SDS011;15817;42.130;24.762;2022-11-18T06:41:11;89.18;;;26.35;;
28629;SDS011;15817;42.130;24.762;2022-11-18T06:43:37;62.95;;;25.98;;
28629;SDS011;15817;42.130;24.762;2022-11-18T06:46:06;77.35;;;25.98;;
28629;SDS011;15817;42.130;24.762;2022-11-18T06:48:56;43.53;;;26.17;;
28629;SDS011;15817;42.130;24.762;2022-11-18T06:51:34;78.65;;;27.17;;
28629;SDS011;15817;42.130;24.762;2022-11-18T06:54:00;38.72;;;26.55;;
28629;SDS011;15817;42.130;24.762;2022-11-18T06:56:26;39.58;;;26.83;;
28629;SDS011;15817;42.130;24.762;2022-11-18T06:58:52;41.60;;;27.58;;
28629;SDS011;15817;42.130;24.762;2022-11-18T07:01:20;55.13;;;31.05;;
28629;SDS011;15817;42.130;24.762;2022-11-18T07:03:47;52.08;;;29.50;;
28629;SDS011;15817;42.130;24.762;2022-11-18T07:06:18;66.43;;;31.95;;
28629;SDS011;15817;42.130;24.762;2022-11-18T07:08:46;53.80;;;31.15;;
28629;SDS011;15817;42.130;24.762;2022-11-18T07:11:14;59.63;;;33.08;;
28629;SDS011;15817;42.130;24.762;2022-11-18T07:13:44;67.28;;;33.22;;
28629;SDS011;15817;42.130;24.762;2022-11-18T07:16:11;63.88;;;34.67;;
28629;SDS011;15817;42.130;24.762;2022-11-18T07:18:39;63.83;;;34.80;;
28629;SDS011;15817;42.130;24.762;2022-11-18T07:21:07;76.95;;;36.97;;
28629;SDS011;15817;42.130;24.762;2022-11-18T07:23:35;74.95;;;36.13;;
28629;SDS011;15817;42.130;24.762;2022-11-18T07:26:01;80.20;;;40.17;;
28629;SDS011;15817;42.130;24.762;2022-11-18T07:28:28;86.85;;;38.13;;
28629;SDS011;15817;42.130;24.762;2022-11-18T07:31:03;93.03;;;37.10;;
28629;SDS011;15817;42.130;24.762;2022-11-18T07:33:42;78.40;;;37.78;;
28629;SDS011;15817;42.130;24.762;2022-11-18T07:36:10;76.82;;;37.80;;
28629;SDS011;15817;42.130;24.762;2022-11-18T07:38:37;67.70;;;36.95;;
28629;SDS011;15817;42.130;24.762;2022-11-18T07:41:37;64.75;;;36.45;;
28629;SDS011;15817;42.130;24.762;2022-11-18T07:43:56;73.57;;;36.40;;
28629;SDS011;15817;42.130;24.762;2022-11-18T07:46:24;73.28;;;36.83;;
28629;SDS011;15817;42.130;24.762;2022-11-18T07:48:52;67.40;;;37.75;;
28629;SDS011;15817;42.130;24.762;2022-11-18T07:51:20;65.65;;;38.05;;
28629;SDS011;15817;42.130;24.762;2022-11-18T07:53:47;70.85;;;36.33;;
28629;SDS011;15817;42.130;24.762;2022-11-18T07:56:14;67.22;;;37.75;;
28629;SDS011;15817;42.130;24.762;2022-11-18T07:58:40;61.83;;;35.63;;
28629;SDS011;15817;42.130;24.762;2022-11-18T08:01:08;66.03;;;36.40;;
28629;SDS011;15817;42.130;24.762;2022-11-18T08:03:35;60.65;;;33.30;;
28629;SDS011;15817;42.130;24.762;2022-11-18T08:08:52;73.18;;;35.70;;
28629;SDS011;15817;42.130;24.762;2022-11-18T08:14:42;71.18;;;33.60;;
28629;SDS011;15817;42.130;24.762;2022-11-18T08:17:20;58.10;;;33.45;;
28629;SDS011;15817;42.130;24.762;2022-11-18T08:19:46;62.40;;;33.85;;
28629;SDS011;15817;42.130;24.762;2022-11-18T08:22:12;61.33;;;34.65;;
28629;SDS011;15817;42.130;24.762;2022-11-18T08:24:38;68.15;;;37.50;;
28629;SDS011;15817;42.130;24.762;2022-11-18T08:27:04;56.42;;;34.03;;
28629;SDS011;15817;42.130;24.762;2022-11-18T08:29:30;60.20;;;33.70;;
28629;SDS011;15817;42.130;24.762;2022-11-18T08:32:01;65.57;;;33.67;;
28629;SDS011;15817;42.130;24.762;2022-11-18T08:34:27;65.18;;;34.55;;
28629;SDS011;15817;42.130;24.762;2022-11-18T08:36:53;64.18;;;34.88;;
28629;SDS011;15817;42.130;24.762;2022-11-18T08:39:19;71.78;;;34.67;;
28629;SDS011;15817;42.130;24.762;2022-11-18T08:41:45;64.35;;;35.25;;
28629;SDS011;15817;42.130;24.762;2022-11-18T08:44:13;58.97;;;34.92;;
28629;SDS011;15817;42.130;24.762;2022-11-18T08:46:40;69.43;;;34.83;;
28629;SDS011;15817;42.130;24.762;2022-11-18T08:49:06;64.32;;;34.92;;
28629;SDS011;15817;42.130;24.762;2022-11-18T08:51:32;64.43;;;35.83;;
28629;SDS011;15817;42.130;24.762;2022-11-18T08:53:58;58.20;;;33.40;;
28629;SDS011;15817;42.130;24.762;2022-11-18T08:56:24;74.38;;;38.75;;
28629;SDS011;15817;42.130;24.762;2022-11-18T08:58:51;79.50;;;39.92;;
28629;SDS011;15817;42.130;24.762;2022-11-18T09:01:17;72.25;;;38.10;;
28629;SDS011;15817;42.130;24.762;2022-11-18T09:03:43;66.72;;;39.00;;
28629;SDS011;15817;42.130;24.762;2022-11-18T09:06:10;78.57;;;39.22;;
28629;SDS011;15817;42.130;24.762;2022-11-18T09:08:43;76.28;;;40.03;;
28629;SDS011;15817;42.130;24.762;2022-11-18T09:11:10;67.05;;;38.85;;
28629;SDS011;15817;42.130;24.762;2022-11-18T09:13:43;73.72;;;40.08;;
28629;SDS011;15817;42.130;24.762;2022-11-18T09:16:10;72.43;;;37.35;;
28629;SDS011;15817;42.130;24.762;2022-11-18T09:18:35;74.55;;;38.30;;
28629;SDS011;15817;42.130;24.762;2022-11-18T09:21:02;265.30;;;52.00;;
28629;SDS011;15817;42.130;24.762;2022-11-18T09:23:31;93.93;;;40.38;;
28629;SDS011;15817;42.130;24.762;2022-11-18T09:25:59;78.53;;;39.92;;
28629;SDS011;15817;42.130;24.762;2022-11-18T09:28:28;69.78;;;38.97;;
28629;SDS011;15817;42.130;24.762;2022-11-18T09:30:57;72.15;;;39.90;;
28629;SDS011;15817;42.130;24.762;2022-11-18T09:33:23;68.05;;;39.10;;
28629;SDS011;15817;42.130;24.762;2022-11-18T09:35:51;70.20;;;39.47;;
28629;SDS011;15817;42.130;24.762;2022-11-18T09:38:17;69.13;;;38.47;;
28629;SDS011;15817;42.130;24.762;2022-11-18T09:54:53;58.20;;;35.13;;
28629;SDS011;15817;42.130;24.762;2022-11-18T09:57:36;64.68;;;39.28;;
28629;SDS011;15817;42.130;24.762;2022-11-18T10:00:14;55.75;;;37.17;;
28629;SDS011;15817;42.130;24.762;2022-11-18T10:02:59;55.45;;;36.40;;
28629;SDS011;15817;42.130;24.762;2022-11-18T10:05:30;59.92;;;36.47;;
28629;SDS011;15817;42.130;24.762;2022-11-18T10:10:53;58.47;;;34.00;;
28629;SDS011;15817;42.130;24.762;2022-11-18T10:13:47;63.40;;;34.22;;
28629;SDS011;15817;42.130;24.762;2022-11-18T10:22:55;61.13;;;35.03;;
28629;SDS011;15817;42.130;24.762;2022-11-18T10:25:27;62.63;;;37.22;;
28629;SDS011;15817;42.130;24.762;2022-11-18T10:28:20;69.15;;;37.10;;
28629;SDS011;15817;42.130;24.762;2022-11-18T10:30:51;64.20;;;35.78;;
28629;SDS011;15817;42.130;24.762;2022-11-18T10:33:27;69.47;;;36.95;;
28629;SDS011;15817;42.130;24.762;2022-11-18T10:38:42;80.65;;;37.88;;
28629;SDS011;15817;42.130;24.762;2022-11-18T10:41:13;74.85;;;38.63;;
28629;SDS011;15817;42.130;24.762;2022-11-18T10:47:34;85.90;;;44.33;;
28629;SDS011;15817;42.130;24.762;2022-11-18T10:50:01;93.75;;;48.97;;
28629;SDS011;15817;42.130;24.762;2022-11-18T10:52:52;102.85;;;54.60;;
28629;SDS011;15817;42.130;24.762;2022-11-18T10:55:22;99.47;;;57.17;;
28629;SDS011;15817;42.130;24.762;2022-11-18T10:58:12;100.20;;;53.80;;
28629;SDS011;15817;42.130;24.762;2022-11-18T11:08:47;108.68;;;54.03;;
28629;SDS011;15817;42.130;24.762;2022-11-18T11:11:30;101.35;;;52.75;;
28629;SDS011;15817;42.130;24.762;2022-11-18T11:17:11;99.60;;;50.25;;
28629;SDS011;15817;42.130;24.762;2022-11-18T11:19:41;95.68;;;50.80;;
28629;SDS011;15817;42.130;24.762;2022-11-18T11:22:23;95.25;;;50.65;;
28629;SDS011;15817;42.130;24.762;2022-11-18T11:24:49;94.25;;;49.83;;
28629;SDS011;15817;42.130;24.762;2022-11-18T11:30:20;87.28;;;49.60;;
28629;SDS011;15817;42.130;24.762;2022-11-18T11:41:28;99.80;;;53.40;;
28629;SDS011;15817;42.130;24.762;2022-11-18T11:47:15;92.63;;;52.67;;
28629;SDS011;15817;42.130;24.762;2022-11-18T11:58:49;94.95;;;52.13;;
28629;SDS011;15817;42.130;24.762;2022-11-18T12:08:23;80.47;;;48.33;;
28629;SDS011;15817;42.130;24.762;2022-11-18T12:11:05;83.30;;;49.88;;
28629;SDS011;15817;42.130;24.762;2022-11-18T12:13:58;79.68;;;48.15;;
28629;SDS011;15817;42.130;24.762;2022-11-18T12:16:53;77.43;;;47.15;;
28629;SDS011;15817;42.130;24.762;2022-11-18T12:19:35;79.63;;;45.13;;
28629;SDS011;15817;42.130;24.762;2022-11-18T12:22:13;72.63;;;43.92;;
28629;SDS011;15817;42.130;24.762;2022-11-18T12:25:17;72.45;;;43.38;;
28629;SDS011;15817;42.130;24.762;2022-11-18T12:28:54;74.55;;;43.83;;
28629;SDS011;15817;42.130;24.762;2022-11-18T12:35:52;66.28;;;41.65;;
28629;SDS011;15817;42.130;24.762;2022-11-18T12:38:28;66.50;;;43.55;;
28629;SDS011;15817;42.130;24.762;2022-11-18T12:44:39;65.22;;;41.90;;
28629;SDS011;15817;42.130;24.762;2022-11-18T12:47:55;73.90;;;45.25;;
28629;SDS011;15817;42.130;24.762;2022-11-18T12:50:16;73.40;;;45.22;;
28629;SDS011;15817;42.130;24.762;2022-11-18T12:55:29;72.07;;;45.17;;
28629;SDS011;15817;42.130;24.762;2022-11-18T12:58:18;72.82;;;44.85;;
28629;SDS011;15817;42.130;24.762;2022-11-18T13:01:02;68.90;;;45.97;;
28629;SDS011;15817;42.130;24.762;2022-11-18T13:03:46;77.80;;;48.15;;
28629;SDS011;15817;42.130;24.762;2022-11-18T13:09:19;80.13;;;49.65;;
28629;SDS011;15817;42.130;24.762;2022-11-18T13:11:50;77.15;;;48.75;;
28629;SDS011;15817;42.130;24.762;2022-11-18T13:26:25;77.50;;;48.60;;
28629;SDS011;15817;42.130;24.762;2022-11-18T13:34:00;76.88;;;49.10;;
28629;SDS011;15817;42.130;24.762;2022-11-18T13:36:29;88.32;;;51.75;;
28629;SDS011;15817;42.130;24.762;2022-11-18T13:38:56;80.28;;;49.13;;
28629;SDS011;15817;42.130;24.762;2022-11-18T13:41:28;85.35;;;51.47;;
28629;SDS011;15817;42.130;24.762;2022-11-18T13:44:09;80.35;;;49.08;;
28629;SDS011;15817;42.130;24.762;2022-11-18T13:46:41;79.13;;;48.25;;
28629;SDS011;15817;42.130;24.762;2022-11-18T13:49:21;78.47;;;49.13;;
28629;SDS011;15817;42.130;24.762;2022-11-18T13:52:42;76.20;;;47.55;;
28629;SDS011;15817;42.130;24.762;2022-11-18T13:55:36;82.50;;;50.67;;
28629;SDS011;15817;42.130;24.762;2022-11-18T13:58:31;81.47;;;49.22;;
28629;SDS011;15817;42.130;24.762;2022-11-18T14:01:47;77.53;;;49.60;;
28629;SDS011;15817;42.130;24.762;2022-11-18T14:04:20;83.47;;;49.85;;
28629;SDS011;15817;42.130;24.762;2022-11-18T14:06:48;80.03;;;48.58;;
28629;SDS011;15817;42.130;24.762;2022-11-18T14:09:27;77.93;;;49.85;;
28629;SDS011;15817;42.130;24.762;2022-11-18T14:17:21;108.72;;;55.83;;
28629;SDS011;15817;42.130;24.762;2022-11-18T14:19:51;100.40;;;53.97;;
28629;SDS011;15817;42.130;24.762;2022-11-18T14:22:29;111.03;;;57.83;;
28629;SDS011;15817;42.130;24.762;2022-11-18T14:28:23;122.38;;;57.88;;
28629;SDS011;15817;42.130;24.762;2022-11-18T14:37:16;132.32;;;60.40;;
28629;SDS011;15817;42.130;24.762;2022-11-18T14:40:02;141.45;;;63.38;;
28629;SDS011;15817;42.130;24.762;2022-11-18T14:42:34;144.55;;;62.58;;
28629;SDS011;15817;42.130;24.762;2022-11-18T14:48:45;140.52;;;60.85;;
28629;SDS011;15817;42.130;24.762;2022-11-18T14:51:12;144.25;;;58.72;;
28629;SDS011;15817;42.130;24.762;2022-11-18T14:53:40;136.70;;;58.60;;
28629;SDS011;15817;42.130;24.762;2022-11-18T14:56:10;133.35;;;58.65;;
28629;SDS011;15817;42.130;24.762;2022-11-18T14:58:50;143.45;;;58.35;;
28629;SDS011;15817;42.130;24.762;2022-11-18T15:01:37;156.85;;;62.38;;
28629;SDS011;15817;42.130;24.762;2022-11-18T15:04:10;141.13;;;57.70;;
28629;SDS011;15817;42.130;24.762;2022-11-18T15:06:41;142.05;;;60.20;;
28629;SDS011;15817;42.130;24.762;2022-11-18T15:09:11;138.13;;;60.10;;
28629;SDS011;15817;42.130;24.762;2022-11-18T15:11:40;146.10;;;57.30;;
28629;SDS011;15817;42.130;24.762;2022-11-18T15:14:14;142.50;;;57.05;;
28629;SDS011;15817;42.130;24.762;2022-11-18T15:16:50;136.75;;;57.35;;
28629;SDS011;15817;42.130;24.762;2022-11-18T15:19:46;130.68;;;54.47;;
28629;SDS011;15817;42.130;24.762;2022-11-18T15:22:23;132.82;;;55.67;;
28629;SDS011;15817;42.130;24.762;2022-11-18T15:29:18;127.57;;;55.28;;
28629;SDS011;15817;42.130;24.762;2022-11-18T15:36:40;133.63;;;56.67;;
28629;SDS011;15817;42.130;24.762;2022-11-18T15:39:19;125.68;;;56.03;;
28629;SDS011;15817;42.130;24.762;2022-11-18T15:42:20;126.43;;;54.45;;
28629;SDS011;15817;42.130;24.762;2022-11-18T15:45:41;124.32;;;55.40;;
28629;SDS011;15817;42.130;24.762;2022-11-18T15:48:30;130.70;;;56.78;;
28629;SDS011;15817;42.130;24.762;2022-11-18T15:51:23;112.13;;;50.63;;
28629;SDS011;15817;42.130;24.762;2022-11-18T15:53:58;114.80;;;51.42;;
28629;SDS011;15817;42.130;24.762;2022-11-18T15:56:28;106.07;;;50.05;;
28629;SDS011;15817;42.130;24.762;2022-11-18T15:58:55;105.35;;;50.80;;
28629;SDS011;15817;42.130;24.762;2022-11-18T16:01:30;99.65;;;47.65;;
28629;SDS011;15817;42.130;24.762;2022-11-18T16:04:15;103.40;;;48.95;;
28629;SDS011;15817;42.130;24.762;2022-11-18T16:06:56;102.32;;;48.63;;
28629;SDS011;15817;42.130;24.762;2022-11-18T16:09:27;92.00;;;46.70;;
28629;SDS011;15817;42.130;24.762;2022-11-18T16:12:13;114.30;;;52.42;;
28629;SDS011;15817;42.130;24.762;2022-11-18T16:15:02;113.20;;;51.08;;
28629;SDS011;15817;42.130;24.762;2022-11-18T16:21:47;117.35;;;51.22;;
28629;SDS011;15817;42.130;24.762;2022-11-18T17:10:02;100.70;;;53.75;;
28629;SDS011;15817;42.130;24.762;2022-11-18T17:12:44;105.28;;;54.03;;
28629;SDS011;15817;42.130;24.762;2022-11-18T17:16:10;102.80;;;53.58;;
28629;SDS011;15817;42.130;24.762;2022-11-18T17:19:03;104.05;;;53.15;;
28629;SDS011;15817;42.130;24.762;2022-11-18T17:21:41;110.47;;;51.72;;
28629;SDS011;15817;42.130;24.762;2022-11-18T17:24:16;104.13;;;51.38;;
28629;SDS011;15817;42.130;24.762;2022-11-18T17:26:57;95.68;;;50.38;;
28629;SDS011;15817;42.130;24.762;2022-11-18T17:29:31;95.75;;;51.15;;
28629;SDS011;15817;42.130;24.762;2022-11-18T17:32:03;105.22;;;53.38;;
28629;SDS011;15817;42.130;24.762;2022-11-18T17:34:38;86.03;;;47.17;;
28629;SDS011;15817;42.130;24.762;2022-11-18T17:37:07;77.88;;;43.22;;
28629;SDS011;15817;42.130;24.762;2022-11-18T17:39:43;73.20;;;44.45;;
28629;SDS011;15817;42.130;24.762;2022-11-18T17:42:35;74.07;;;42.47;;
28629;SDS011;15817;42.130;24.762;2022-11-18T17:45:12;73.32;;;41.55;;
28629;SDS011;15817;42.130;24.762;2022-11-18T17:47:48;76.75;;;42.17;;
28629;SDS011;15817;42.130;24.762;2022-11-18T17:50:28;71.65;;;41.63;;
28629;SDS011;15817;42.130;24.762;2022-11-18T17:53:04;76.38;;;43.05;;
28629;SDS011;15817;42.130;24.762;2022-11-18T17:59:02;78.78;;;41.35;;
28629;SDS011;15817;42.130;24.762;2022-11-18T18:01:51;71.15;;;41.03;;
28629;SDS011;15817;42.130;24.762;2022-11-18T18:04:33;67.05;;;39.85;;
28629;SDS011;15817;42.130;24.762;2022-11-18T18:07:04;69.43;;;40.70;;
28629;SDS011;15817;42.130;24.762;2022-11-18T18:13:23;77.25;;;39.97;;
28629;SDS011;15817;42.130;24.762;2022-11-18T18:24:14;74.65;;;41.97;;
28629;SDS011;15817;42.130;24.762;2022-11-18T18:26:47;73.38;;;40.13;;
28629;SDS011;15817;42.130;24.762;2022-11-18T18:29:18;74.85;;;39.90;;
28629;SDS011;15817;42.130;24.762;2022-11-18T18:31:52;69.40;;;39.17;;
28629;SDS011;15817;42.130;24.762;2022-11-18T18:34:36;69.57;;;39.00;;